createdAt,value
2018-04-18T00:02:29.962Z,14.40
2018-04-18T00:05:08.189Z,14.40
2018-04-18T00:07:48.328Z,14.40
2018-04-18T00:10:23.787Z,14.40
2018-04-18T00:13:02.252Z,14.40
2018-04-18T00:15:41.242Z,14.40
2018-04-18T00:18:18.261Z,14.40
2018-04-18T00:20:57.819Z,14.40
2018-04-18T00:23:33.867Z,14.40
2018-04-18T00:26:10.009Z,14.30
2018-04-18T00:28:47.016Z,14.30
2018-04-18T00:31:17.512Z,14.10
2018-04-18T00:33:54.903Z,14.10
2018-04-18T00:36:30.636Z,14.10
2018-04-18T00:39:07.657Z,14.10
2018-04-18T00:41:50.502Z,14.10
2018-04-18T00:44:29.181Z,14.10
2018-04-18T00:47:05.645Z,14.10
2018-04-18T00:49:44.745Z,14.00
2018-04-18T00:52:25.160Z,14.00
2018-04-18T00:55:04.893Z,14.00
2018-04-18T00:57:42.530Z,14.00
2018-04-18T01:00:19.213Z,14.00
2018-04-18T01:03:03.899Z,14.00
2018-04-18T01:05:34.349Z,14.00
2018-04-18T01:08:11.441Z,13.90
2018-04-18T01:10:51.638Z,13.90
2018-04-18T01:13:30.338Z,13.90
2018-04-18T01:16:08.608Z,13.90
2018-04-18T01:18:44.350Z,13.90
2018-04-18T01:21:21.112Z,13.80
2018-04-18T01:23:56.632Z,13.80
2018-04-18T01:26:35.473Z,13.80
2018-04-18T01:29:12.756Z,13.80
2018-04-18T01:31:49.457Z,13.80
2018-04-18T01:34:26.491Z,13.80
2018-04-18T01:37:06.811Z,13.80
2018-04-18T01:39:43.969Z,13.70
2018-04-18T01:42:21.049Z,13.70
2018-04-18T01:45:00.394Z,13.60
2018-04-18T01:47:38.600Z,13.60
2018-04-18T01:50:15.585Z,13.60
2018-04-18T01:52:53.603Z,13.60
2018-04-18T01:55:37.035Z,13.60
2018-04-18T01:58:06.944Z,13.60
2018-04-18T02:00:44.142Z,13.50
2018-04-18T02:03:21.700Z,13.50
2018-04-18T02:06:00.299Z,13.50
2018-04-18T02:08:36.848Z,13.50
2018-04-18T02:11:13.057Z,13.50
2018-04-18T02:13:51.187Z,13.50
2018-04-18T02:16:31.350Z,13.40
2018-04-18T02:19:07.865Z,13.40
2018-04-18T02:21:43.364Z,13.30
2018-04-18T02:24:21.731Z,13.30
2018-04-18T02:26:57.259Z,13.20
2018-04-18T02:29:34.207Z,13.20
2018-04-18T02:32:12.534Z,13.20
2018-04-18T02:34:49.998Z,13.20
2018-04-18T02:37:27.142Z,13.20
2018-04-18T02:40:05.178Z,13.20
2018-04-18T02:42:42.652Z,13.10
2018-04-18T02:45:20.815Z,13.10
2018-04-18T02:47:59.421Z,13.00
2018-04-18T02:50:37.860Z,12.90
2018-04-18T02:53:17.342Z,12.90
2018-04-18T02:55:57.144Z,12.90
2018-04-18T02:58:30.303Z,12.90
2018-04-18T03:01:00.425Z,12.90
2018-04-18T03:03:32.070Z,12.90
2018-04-18T03:06:11.818Z,12.80
2018-04-18T03:08:49.224Z,12.90
2018-04-18T03:11:25.509Z,12.80
2018-04-18T03:14:03.506Z,12.80
2018-04-18T03:16:41.313Z,12.80
2018-04-18T03:19:18.525Z,12.70
2018-04-18T03:21:56.144Z,12.70
2018-04-18T03:24:32.562Z,12.70
2018-04-18T03:27:07.463Z,12.60
2018-04-18T03:29:44.394Z,12.60
2018-04-18T03:32:15.682Z,12.60
2018-04-18T03:34:53.951Z,12.50
2018-04-18T03:37:33.913Z,12.50
2018-04-18T03:40:11.350Z,12.40
2018-04-18T03:42:49.661Z,12.20
2018-04-18T03:45:26.952Z,12.20
2018-04-18T03:47:58.970Z,12.20
2018-04-18T03:50:35.567Z,12.20
2018-04-18T03:53:18.400Z,12.10
2018-04-18T03:55:55.995Z,12.10
2018-04-18T03:58:36.545Z,12.00
2018-04-18T04:01:16.402Z,12.10
2018-04-18T04:03:47.793Z,12.10
2018-04-18T04:06:16.720Z,12.10
2018-04-18T04:08:55.692Z,12.10
2018-04-18T04:11:32.961Z,12.00
2018-04-18T04:14:10.957Z,11.80
2018-04-18T04:17:00.881Z,11.80
2018-04-18T04:19:47.554Z,11.80
2018-04-18T04:22:37.441Z,11.70
2018-04-18T17:02:14.200Z,25.90
2018-04-18T17:04:46.182Z,25.90
2018-04-18T17:07:17.392Z,25.90
2018-04-18T17:09:48.205Z,25.90
2018-04-18T17:12:28.844Z,25.80
2018-04-18T17:15:00.984Z,25.80
2018-04-18T17:17:31.848Z,25.80
2018-04-18T17:20:02.111Z,25.70
2018-04-18T17:22:34.460Z,25.70
2018-04-18T17:25:07.399Z,25.70
2018-04-18T17:27:37.992Z,25.70
2018-04-18T17:30:10.702Z,25.60
2018-04-18T17:32:41.438Z,25.60
2018-04-18T17:35:11.594Z,25.60
2018-04-18T17:37:41.422Z,25.50
2018-04-18T17:40:11.647Z,25.50
2018-04-18T17:42:42.040Z,25.40
2018-04-18T17:45:13.534Z,25.40
2018-04-18T17:47:44.213Z,25.40
2018-04-18T17:50:15.659Z,25.30
2018-04-18T17:52:46.829Z,25.20
2018-04-18T17:55:17.156Z,25.20
2018-04-18T17:57:47.940Z,25.10
2018-04-18T18:00:20.075Z,25.00
2018-04-18T18:02:50.352Z,25.00
2018-04-18T18:05:23.002Z,24.80
2018-04-18T18:07:56.021Z,24.60
2018-04-18T18:10:26.216Z,24.60
2018-04-18T18:12:57.229Z,24.40
2018-04-18T18:15:26.739Z,24.40
2018-04-18T18:17:57.049Z,24.30
2018-04-18T18:20:27.567Z,24.30
2018-04-18T18:22:57.063Z,24.10
2018-04-18T18:25:26.457Z,24.00
2018-04-18T18:27:56.198Z,23.80
2018-04-18T18:30:26.563Z,23.60
2018-04-18T18:32:57.473Z,23.30
2018-04-18T18:35:29.495Z,23.30
2018-04-18T18:37:59.921Z,23.20
2018-04-18T18:40:29.919Z,23.00
2018-04-18T18:43:00.942Z,22.90
2018-04-18T18:45:31.747Z,22.60
2018-04-18T18:48:03.029Z,22.50
2018-04-18T18:50:36.217Z,22.40
2018-04-18T18:53:07.324Z,22.20
2018-04-18T18:55:37.808Z,22.20
2018-04-18T18:58:09.121Z,22.10
2018-04-18T19:00:42.329Z,21.90
2018-04-18T19:03:14.981Z,21.90
2018-04-18T19:05:47.520Z,21.80
2018-04-18T19:08:17.586Z,21.70
2018-04-18T19:10:48.017Z,21.50
2018-04-18T19:13:18.569Z,21.40
2018-04-18T19:15:49.014Z,21.40
2018-04-18T19:18:18.954Z,21.30
2018-04-18T19:20:55.969Z,21.20
2018-04-18T19:23:30.871Z,21.20
2018-04-18T19:26:02.208Z,21.10
2018-04-18T19:28:47.799Z,21.10
2018-04-18T19:31:17.961Z,21.00
2018-04-18T19:33:48.433Z,20.90
2018-04-18T19:36:19.299Z,20.80
2018-04-18T19:38:50.668Z,20.70
2018-04-18T19:41:21.257Z,20.60
2018-04-18T19:43:51.974Z,20.60
2018-04-18T19:46:22.714Z,20.50
2018-04-18T19:48:53.420Z,20.50
2018-04-18T19:51:24.194Z,20.40
2018-04-18T19:53:55.247Z,20.40
2018-04-18T19:56:25.898Z,20.30
2018-04-18T19:58:56.176Z,20.30
2018-04-18T20:01:26.527Z,20.20
2018-04-18T20:03:57.778Z,20.10
2018-04-18T20:06:29.295Z,20.00
2018-04-18T20:08:59.832Z,20.00
2018-04-18T20:11:30.607Z,20.00
2018-04-18T20:14:01.249Z,19.90
2018-04-18T20:16:32.320Z,19.80
2018-04-18T20:19:03.119Z,19.80
2018-04-18T20:21:33.605Z,19.70
2018-04-18T20:24:03.947Z,19.60
2018-04-18T20:26:34.997Z,19.60
2018-04-18T20:29:06.165Z,19.60
2018-04-18T20:31:36.847Z,19.60
2018-04-18T20:34:07.337Z,19.60
2018-04-18T20:36:44.935Z,19.50
2018-04-18T20:39:15.347Z,19.50
2018-04-18T20:41:55.058Z,19.50
2018-04-18T20:44:25.605Z,19.30
2018-04-18T20:46:55.497Z,19.30
2018-04-18T20:49:26.167Z,19.30
2018-04-18T20:51:56.668Z,19.30
2018-04-18T20:54:28.275Z,19.20
2018-04-18T20:56:58.656Z,19.20
2018-04-18T20:59:30.131Z,19.20
2018-04-18T21:02:00.667Z,19.20
2018-04-18T21:04:31.999Z,19.10
2018-04-18T21:07:02.814Z,19.00
2018-04-18T21:09:33.811Z,18.90
2018-04-18T21:12:03.961Z,18.90
2018-04-18T21:14:34.666Z,18.90
2018-04-18T21:17:05.333Z,18.80
2018-04-18T21:19:35.907Z,18.70
2018-04-18T21:22:07.077Z,18.70
2018-04-18T21:24:37.530Z,18.60
2018-04-18T21:27:08.676Z,18.60
2018-04-18T21:29:39.211Z,18.50
2018-04-18T21:32:10.854Z,18.50
2018-04-18T21:34:41.304Z,18.40
2018-04-18T21:37:13.090Z,18.30
2018-04-18T21:39:43.499Z,18.30
2018-04-18T21:42:13.740Z,18.30
2018-04-18T21:44:44.368Z,18.20
2018-04-18T21:47:14.657Z,18.20
2018-04-18T21:49:46.029Z,18.10
2018-04-18T21:52:15.962Z,18.10
2018-04-18T21:54:46.346Z,18.00
2018-04-18T21:57:17.426Z,17.80
2018-04-18T21:59:47.952Z,17.80
2018-04-18T22:02:18.479Z,17.80
2018-04-18T22:04:49.243Z,17.70
2018-04-18T22:07:19.716Z,17.70
2018-04-18T22:09:50.335Z,17.70
2018-04-18T22:12:21.372Z,17.60
2018-04-18T22:14:52.363Z,17.50
2018-04-18T22:17:22.749Z,17.50
2018-04-18T22:19:53.721Z,17.40
2018-04-18T22:22:24.336Z,17.40
2018-04-18T22:24:54.546Z,17.40
2018-04-18T22:27:24.870Z,17.30
2018-04-18T22:29:55.602Z,17.30
2018-04-18T22:32:26.587Z,17.30
2018-04-18T22:34:56.992Z,17.30
2018-04-18T22:37:27.134Z,17.30
2018-04-18T22:39:57.895Z,17.30
2018-04-18T22:42:28.518Z,17.30
2018-04-18T22:44:59.127Z,17.30
2018-04-18T22:47:30.167Z,17.20
2018-04-18T22:50:00.929Z,17.20
2018-04-18T22:52:31.462Z,17.20
2018-04-18T22:55:01.925Z,17.20
2018-04-18T22:57:32.661Z,17.10
2018-04-18T23:00:03.298Z,17.10
2018-04-18T23:02:33.900Z,17.10
2018-04-18T23:05:04.735Z,17.10
2018-04-18T23:07:36.197Z,17.20
2018-04-18T23:10:07.385Z,17.40
2018-04-18T23:12:37.736Z,17.30
2018-04-18T23:15:08.118Z,17.30
2018-04-18T23:17:39.318Z,17.40
2018-04-18T23:20:10.319Z,17.50
2018-04-18T23:22:41.017Z,17.50
2018-04-18T23:25:11.381Z,17.50
2018-04-18T23:27:41.994Z,17.40
2018-04-18T23:30:12.764Z,17.40
2018-04-18T23:32:43.399Z,17.30
2018-04-18T23:35:13.950Z,17.20
2018-04-18T23:37:45.061Z,17.10
2018-04-18T23:40:15.761Z,17.10
2018-04-18T23:42:46.385Z,17.10
2018-04-18T23:45:17.221Z,17.00
2018-04-18T23:47:48.331Z,17.00
2018-04-18T23:50:18.888Z,16.90
2018-04-18T23:52:49.586Z,16.90
2018-04-18T23:55:20.072Z,16.80
2018-04-18T23:57:51.045Z,16.70
